This is the latest recevied weather packets stored in our database for station/object CE4ERM-13. If no packets are shown the sender has not sent any weather packets the latest 10 day(s).
| Time | Temp. | Humidity | Pressure | Rain* | Wind** | Luminosity | Snow |
|---|---|---|---|---|---|---|---|
| 1777469163 | 20° C | 47% | 1019.8 hPa | - | - | - | - |
| 1777469041 | 24.44° C | 44% | 1016.7 hPa | - | - | - | - |
| 1777468563 | 20° C | 47% | 1017.8 hPa | - | - | - | - |
| 1777467963 | 19.44° C | 48% | 1018.9 hPa | - | - | - | - |
| 1777467840 | 22.22° C | 46% | 1017.3 hPa | - | - | - | - |
| 1777467363 | 19.44° C | 48% | 1017 hPa | - | - | - | - |
| 1777467239 | 22.78° C | 46% | 1016.8 hPa | - | - | - | - |
| 1777466763 | 19.44° C | 47% | 1020 hPa | - | - | - | - |
| 1777466639 | 22.78° C | 45% | 1016.3 hPa | - | - | - | - |
| 1777466162 | 19.44° C | 47% | 1015.6 hPa | - | - | - | - |
| 1777466038 | 22.22° C | 46% | 1017.7 hPa | - | - | - | - |
| 1777465562 | 19.44° C | 48% | 1017.1 hPa | - | - | - | - |
| 1777464962 | 19.44° C | 46% | 1016.8 hPa | - | - | - | - |
| 1777464838 | 22.22° C | 45% | 1017.5 hPa | - | - | - | - |
| 1777463761 | 20° C | 46% | 1018.2 hPa | - | - | - | - |
| 1777463689 | 21.11° C | 46% | 1018.8 hPa | - | - | - | - |
| 1777463636 | 21.11° C | 46% | 1018.8 hPa | - | - | - | - |
| 1777463161 | 19.44° C | 47% | 1018.4 hPa | - | - | - | - |
| 1777463036 | 21.11° C | 48% | 1018.4 hPa | - | - | - | - |
| 1777462561 | 19.44° C | 47% | 1015.5 hPa | - | - | - | - |
| 1777462436 | 21.11° C | 46% | 1017.5 hPa | - | - | - | - |
| 1777461961 | 20° C | 46% | 1017.5 hPa | - | - | - | - |
| 1777461360 | 20° C | 46% | 1017.8 hPa | - | - | - | - |
| 1777461234 | 21.67° C | 46% | 1017.9 hPa | - | - | - | - |
| 1777460634 | 21.67° C | 46% | 1018.5 hPa | - | - | - | - |
* Rain since midnight (hover to see other rain measurements)
** Current wind speed in m/s (hover to see current wind gust speed)